Midhurst, United Kingdom
Current Conditions -  °F | °C
As of 8:50 PM on Wednesday 17 Dec 2014 (Local Time) from EGVO Reporting Station
Light Rain Light Rain  
Wind Chill: 52°   Ceiling: 600
Heat Index: 52°   Visibility: 6mi
Dew Point: 50°   Wind: 16mph
Humidity: 94%   Direction: 230°SW
Pressure: 29.8"   Gusts: NA
Location:  50.99°N, 0.74°W
Report Text: EGVO 172050Z 23014KT 9999 -RADZ BKN006 BKN015 11/10 Q1009 YLO1
Loading
Personal Weather Stations






























Interactive Weather Map New forecast layout! Learn more

10-Day Weather Forecast

Advertisements
Track Severe Weather on mobile